Carleton, MI (48117)

2:19 PM EDT on September 28, 2016 (GMT -0400)
Raisinville Township | | Change Station

Elev 623 ft 41.97 °N, 83.48 °W | Updated 26 seconds ago

Rain
Rain
56.7 °F
Feels Like 56.7 °F
N
0.0
Wind Variable Wind from SSE
Gusts 0.0 mph

Today
High -- | Low -- °F
--% Chance of Precip.
Yesterday
High -- | Low -- °F
Precip. -- in
Pressure 29.90 in
Visibility 7.0 miles
Clouds Scattered Clouds 2000 ft
Scattered Clouds 2700 ft
Overcast 4900 ft
Dew Point 56 °F
Humidity 97%
Rainfall 0.27 in
Snow Depth Not available.
7:27 AM 7:19 PM
Waning Crescent, 5% visible
METAR KTTF 281812Z AUTO 14003KT 7SM RA SCT020 SCT027 OVC049 14/14 A2990 RMK AO2 T01440136
Pressure 29.90 in
Visibility 7.0 miles
Clouds Scattered Clouds 2000 ft
Scattered Clouds 2700 ft
Overcast 4900 ft
Dew Point 56 °F
Humidity 97%
Rainfall 0.27 in
Snow Depth Not available.
7:27 AM 7:19 PM
Waning Crescent, 5% visible
METAR KTTF 281812Z AUTO 14003KT 7SM RA SCT020 SCT027 OVC049 14/14 A2990 RMK AO2 T01440136

10-Day Weather Forecast

Almanac

Astronomy

Sep. 28, 2016 Rise Set
Actual Time
Civil Twilight
Nautical Twilight
Astronomical Twilight
Moon
Length of Visible Light
Length of Day
Tomorrow will be .
, % of the Moon is Illuminated

Today's Extremes

State Highs State Lows

Community

WunderPhotos

Upload Photos

1,942,294 photos uploaded!

WunderBlog® & News

Nearby

Air Quality

  Air Quality AQ Index Pollutant
Not available.

Snow Depth

Station Depth Elevation

Earthquake Activity

City Distance Mag. Time & Date
Minimum magnitude displayed is 2.5.

Coastal Water Temperatures

Place Temperature

Stations

Nearby Weather Stations

Station Location Temp. Windchill Dew Point Humidity Wind Precip. Elev Updated Type
                   

Watches & Warnings

There are currently no watches in effect.